createdAt,value
2017-07-28T00:00:35.032Z,95
2017-07-28T00:01:37.397Z,94
2017-07-28T00:02:39.759Z,94
2017-07-28T00:03:41.778Z,94
2017-07-28T00:04:43.808Z,94
2017-07-28T00:05:45.824Z,95
2017-07-28T00:06:47.856Z,95
2017-07-28T00:07:49.877Z,95
2017-07-28T00:08:52.573Z,95
2017-07-28T00:09:54.600Z,95
2017-07-28T00:10:56.624Z,95
2017-07-28T00:11:58.979Z,95
2017-07-28T00:13:01.344Z,95
2017-07-28T00:14:03.726Z,95
2017-07-28T00:15:05.752Z,95
2017-07-28T00:16:08.109Z,95
2017-07-28T00:17:10.475Z,95
2017-07-28T00:18:12.494Z,95
2017-07-28T00:19:14.521Z,95
2017-07-28T00:20:16.552Z,95
2017-07-28T00:21:18.927Z,95
2017-07-28T00:22:20.952Z,95
2017-07-28T00:23:23.342Z,95
2017-07-28T00:24:25.352Z,95
2017-07-28T00:25:27.726Z,95
2017-07-28T00:26:29.752Z,95
2017-07-28T00:27:32.121Z,95
2017-07-28T00:28:34.477Z,95
2017-07-28T00:29:36.840Z,95
2017-07-28T00:30:38.871Z,95
2017-07-28T00:31:40.895Z,95
2017-07-28T00:32:42.924Z,95
2017-07-28T00:33:45.290Z,95
2017-07-28T00:34:47.318Z,95
2017-07-28T00:35:49.340Z,95
2017-07-28T00:36:51.362Z,95
2017-07-28T00:37:53.385Z,95
2017-07-28T00:38:55.421Z,95
2017-07-28T00:39:57.776Z,95
2017-07-28T00:40:59.799Z,95
2017-07-28T00:42:02.519Z,95
2017-07-28T00:43:04.880Z,95
2017-07-28T00:44:06.901Z,95
2017-07-28T00:45:08.922Z,95
2017-07-28T00:46:11.297Z,95
2017-07-28T00:47:13.326Z,95
2017-07-28T00:48:15.358Z,95
2017-07-28T00:49:17.392Z,95
2017-07-28T00:50:19.748Z,95
2017-07-28T00:51:21.767Z,95
2017-07-28T00:52:23.793Z,95
2017-07-28T00:53:25.817Z,95
2017-07-28T00:54:28.532Z,95
2017-07-28T00:55:30.561Z,95
2017-07-28T00:56:32.578Z,95
2017-07-28T00:57:34.609Z,95
2017-07-28T00:58:36.970Z,95
2017-07-28T00:59:38.993Z,95
2017-07-28T01:00:41.362Z,95
2017-07-28T01:01:43.380Z,95
2017-07-28T01:02:45.406Z,95
2017-07-28T01:03:47.782Z,95
2017-07-28T01:04:50.140Z,95
2017-07-28T01:05:52.166Z,95
2017-07-28T01:06:54.189Z,95
2017-07-28T01:07:56.563Z,95
2017-07-28T01:08:58.587Z,95
2017-07-28T01:10:00.960Z,95
2017-07-28T01:11:02.986Z,96
2017-07-28T01:12:05.344Z,96
2017-07-28T01:13:07.366Z,96
2017-07-28T01:14:09.390Z,96
2017-07-28T01:15:11.426Z,96
2017-07-28T01:16:13.445Z,96
2017-07-28T01:17:15.469Z,96
2017-07-28T01:18:17.852Z,96
2017-07-28T01:19:19.869Z,96
2017-07-28T01:20:21.886Z,96
2017-07-28T01:21:23.907Z,96
2017-07-28T01:22:25.945Z,96
2017-07-28T01:23:27.958Z,96
2017-07-28T01:24:29.989Z,96
2017-07-28T01:25:32.007Z,96
2017-07-28T01:26:34.031Z,96
2017-07-28T01:27:36.402Z,96
2017-07-28T01:28:38.761Z,96
2017-07-28T01:29:40.780Z,96
2017-07-28T01:30:43.147Z,96
2017-07-28T01:31:45.161Z,96
2017-07-28T01:32:47.869Z,96
2017-07-28T01:33:49.885Z,96
2017-07-28T01:34:52.251Z,96
2017-07-28T01:35:54.604Z,96
2017-07-28T01:36:56.617Z,96
2017-07-28T01:37:58.974Z,96
2017-07-28T01:39:01.003Z,96
2017-07-28T01:40:03.362Z,96
2017-07-28T01:41:05.720Z,96
2017-07-28T01:42:07.761Z,96
2017-07-28T01:43:09.784Z,96
2017-07-28T01:44:12.146Z,96
2017-07-28T01:45:14.198Z,96
2017-07-28T01:46:16.230Z,96
2017-07-28T01:47:18.591Z,96
2017-07-28T01:48:20.608Z,96
2017-07-28T01:49:22.630Z,96
2017-07-28T01:50:24.657Z,96
2017-07-28T01:51:26.682Z,96
2017-07-28T01:52:28.698Z,96
2017-07-28T01:53:30.719Z,96
2017-07-28T01:54:32.741Z,96
2017-07-28T01:55:34.765Z,96
2017-07-28T01:56:36.779Z,96
2017-07-28T01:57:39.148Z,96
2017-07-28T01:58:41.173Z,96
2017-07-28T01:59:43.213Z,96
2017-07-28T02:00:45.239Z,96
2017-07-28T02:01:47.956Z,97
2017-07-28T02:02:50.323Z,97
2017-07-28T02:03:52.360Z,97
2017-07-28T02:04:54.386Z,97
2017-07-28T02:05:56.410Z,97
2017-07-28T02:06:58.773Z,97
2017-07-28T02:08:01.827Z,97
2017-07-28T02:09:04.525Z,97
2017-07-28T02:10:06.561Z,97
2017-07-28T02:11:08.935Z,97
2017-07-28T02:12:10.960Z,97
2017-07-28T02:13:13.330Z,97
2017-07-28T02:14:15.345Z,97
2017-07-28T02:15:18.057Z,97
2017-07-28T02:16:20.085Z,97
2017-07-28T02:17:22.098Z,97
2017-07-28T02:18:24.459Z,97
2017-07-28T02:19:26.490Z,97
2017-07-28T02:20:28.514Z,97
2017-07-28T02:21:30.876Z,97
2017-07-28T02:22:32.897Z,97
2017-07-28T02:23:34.915Z,97
2017-07-28T02:24:36.940Z,97
2017-07-28T02:25:38.957Z,97
2017-07-28T02:26:40.986Z,97
2017-07-28T02:27:43.014Z,97
2017-07-28T02:28:45.030Z,97
2017-07-28T02:29:47.061Z,97
2017-07-28T02:30:49.085Z,97
2017-07-28T02:31:51.445Z,97
2017-07-28T02:32:53.803Z,97
2017-07-28T02:33:56.172Z,97
2017-07-28T02:34:58.198Z,97
2017-07-28T02:36:00.892Z,97
2017-07-28T02:37:03.276Z,97
2017-07-28T02:38:05.648Z,97
2017-07-28T02:39:07.672Z,97
2017-07-28T02:40:10.068Z,97
2017-07-28T02:41:12.087Z,97
2017-07-28T02:42:14.111Z,97
2017-07-28T02:43:16.815Z,97
2017-07-28T02:44:19.176Z,97
2017-07-28T02:45:21.208Z,97
2017-07-28T02:46:23.566Z,97
2017-07-28T02:47:25.918Z,97
2017-07-28T02:48:27.939Z,97
2017-07-28T02:49:30.303Z,97
2017-07-28T02:50:32.996Z,97
2017-07-28T02:51:35.361Z,97
2017-07-28T02:52:37.735Z,97
2017-07-28T02:53:39.754Z,97
2017-07-28T02:54:42.110Z,97
2017-07-28T02:55:44.133Z,97
2017-07-28T02:56:46.163Z,97
2017-07-28T02:57:48.531Z,97
2017-07-28T02:58:50.548Z,97
2017-07-28T02:59:52.582Z,97
2017-07-28T03:00:54.599Z,97
2017-07-28T03:01:56.951Z,97
2017-07-28T03:02:58.972Z,97
2017-07-28T03:04:01.000Z,97
2017-07-28T03:05:03.022Z,97
2017-07-28T03:06:05.385Z,97
2017-07-28T03:07:07.402Z,97
2017-07-28T03:08:10.102Z,97
2017-07-28T03:09:12.469Z,97
2017-07-28T03:10:14.492Z,97
2017-07-28T03:11:16.525Z,97
2017-07-28T03:12:18.542Z,97
2017-07-28T03:13:20.571Z,97
2017-07-28T03:14:22.631Z,97
2017-07-28T03:15:24.656Z,97
2017-07-28T03:16:26.682Z,97
2017-07-28T03:17:28.703Z,97
2017-07-28T03:18:30.732Z,97
2017-07-28T03:19:33.093Z,97
2017-07-28T03:20:35.113Z,97
2017-07-28T03:21:37.139Z,97
2017-07-28T03:22:39.175Z,97
2017-07-28T03:23:41.195Z,97
2017-07-28T03:24:43.897Z,97
2017-07-28T03:25:45.918Z,97
2017-07-28T03:26:47.943Z,97
2017-07-28T03:27:49.968Z,97
2017-07-28T03:28:52.700Z,97
2017-07-28T03:29:54.724Z,97
2017-07-28T03:30:57.089Z,97
2017-07-28T03:31:59.793Z,97
2017-07-28T03:33:01.819Z,97
2017-07-28T03:34:03.839Z,97
2017-07-28T03:35:06.537Z,97
2017-07-28T03:36:09.250Z,97
2017-07-28T03:37:11.278Z,97
2017-07-28T03:38:13.298Z,97
2017-07-28T03:39:15.656Z,97
2017-07-28T03:40:17.714Z,97
2017-07-28T03:41:20.426Z,97
2017-07-28T03:42:22.444Z,97
2017-07-28T03:43:24.478Z,97
2017-07-28T03:44:26.498Z,97
2017-07-28T03:45:28.531Z,97
2017-07-28T03:46:30.558Z,97
2017-07-28T03:47:33.277Z,97
2017-07-28T03:48:35.308Z,97
2017-07-28T03:49:37.328Z,97
2017-07-28T03:50:39.350Z,97
2017-07-28T03:51:41.405Z,97
2017-07-28T03:52:43.791Z,97
2017-07-28T03:53:45.812Z,97
2017-07-28T03:54:47.838Z,97
2017-07-28T03:55:49.866Z,97
2017-07-28T03:56:52.224Z,97
2017-07-28T03:57:54.920Z,97
2017-07-28T03:58:56.948Z,97
2017-07-28T03:59:59.320Z,97
2017-07-28T04:01:02.033Z,97
2017-07-28T04:02:04.076Z,97
2017-07-28T04:03:06.442Z,97
2017-07-28T04:04:08.808Z,97
2017-07-28T04:05:10.855Z,97
2017-07-28T04:06:13.565Z,97
2017-07-28T04:07:15.595Z,97
2017-07-28T04:08:18.295Z,97
2017-07-28T04:09:20.664Z,97
2017-07-28T04:10:22.691Z,97
2017-07-28T04:11:24.715Z,97
2017-07-28T04:12:27.419Z,97
2017-07-28T04:13:29.800Z,97
2017-07-28T04:14:31.826Z,97
2017-07-28T04:15:34.188Z,97
2017-07-28T04:16:36.211Z,97
2017-07-28T04:17:38.243Z,97
2017-07-28T04:18:40.268Z,97
2017-07-28T04:19:42.284Z,97
2017-07-28T04:20:44.650Z,97
2017-07-28T04:21:47.023Z,97
2017-07-28T04:22:49.371Z,97
2017-07-28T04:23:51.741Z,97
2017-07-28T04:24:54.103Z,97
2017-07-28T04:25:56.478Z,97
2017-07-28T04:26:58.508Z,96
2017-07-28T04:28:00.540Z,97
2017-07-28T04:29:03.259Z,96
2017-07-28T04:30:05.622Z,96
2017-07-28T04:31:07.642Z,96
2017-07-28T04:32:09.675Z,96
2017-07-28T04:33:11.698Z,96
2017-07-28T04:34:13.725Z,96
2017-07-28T04:35:16.093Z,96
2017-07-28T04:36:18.138Z,96
2017-07-28T04:37:20.166Z,96
2017-07-28T04:38:22.195Z,96
2017-07-28T04:39:24.900Z,96
2017-07-28T04:40:26.926Z,96
2017-07-28T04:41:28.963Z,96
2017-07-28T04:42:31.337Z,97
2017-07-28T04:43:33.362Z,97
2017-07-28T04:44:35.390Z,97
2017-07-28T04:45:37.423Z,97
2017-07-28T04:46:39.453Z,97
2017-07-28T04:47:41.502Z,97
2017-07-28T04:48:43.869Z,97
2017-07-28T04:49:45.894Z,97
2017-07-28T04:50:47.922Z,97
2017-07-28T04:51:49.941Z,97
2017-07-28T04:52:51.973Z,97
2017-07-28T04:53:53.992Z,97
2017-07-28T04:55:08.792Z,97
2017-07-28T04:56:10.830Z,97
2017-07-28T04:57:12.858Z,97
2017-07-28T04:58:15.213Z,97
2017-07-28T04:59:17.581Z,97
2017-07-28T05:00:19.617Z,97
2017-07-28T05:01:21.642Z,97
2017-07-28T05:02:24.021Z,97
2017-07-28T05:03:26.057Z,97
2017-07-28T05:04:28.439Z,97
2017-07-28T05:05:30.474Z,97
2017-07-28T05:06:32.496Z,97
2017-07-28T05:07:34.525Z,97
2017-07-28T05:08:36.571Z,97
2017-07-28T05:09:38.942Z,97
2017-07-28T05:10:41.310Z,97
2017-07-28T05:11:43.335Z,97
2017-07-28T05:12:45.684Z,97
2017-07-28T05:13:47.729Z,97
2017-07-28T05:14:50.049Z,97
2017-07-28T05:15:52.764Z,97
2017-07-28T05:16:55.136Z,97
2017-07-28T05:17:57.165Z,97
2017-07-28T05:18:59.527Z,97
2017-07-28T05:20:01.579Z,97
2017-07-28T05:21:03.606Z,96
2017-07-28T05:22:05.618Z,96
2017-07-28T05:23:07.662Z,96
2017-07-28T05:24:09.680Z,96
2017-07-28T05:25:11.704Z,96
2017-07-28T05:26:13.738Z,96
2017-07-28T05:27:15.757Z,96
2017-07-28T05:28:18.795Z,96
2017-07-28T05:29:21.181Z,96
2017-07-28T05:30:23.197Z,96
2017-07-28T05:31:25.227Z,95
2017-07-28T05:32:27.248Z,95
2017-07-28T05:33:29.618Z,95
2017-07-28T05:34:31.647Z,95
2017-07-28T05:35:34.011Z,95
2017-07-28T05:36:36.053Z,94
2017-07-28T05:37:38.077Z,94
2017-07-28T05:38:40.426Z,93
2017-07-28T05:39:42.459Z,93
2017-07-28T05:40:44.471Z,93
2017-07-28T05:41:46.496Z,92
2017-07-28T05:42:48.522Z,92
2017-07-28T05:43:50.552Z,91
2017-07-28T05:44:52.913Z,92
2017-07-28T05:45:54.936Z,91
2017-07-28T05:46:56.958Z,91
2017-07-28T05:47:59.365Z,90
2017-07-28T05:49:01.389Z,90
2017-07-28T05:50:04.099Z,90
2017-07-28T05:51:06.120Z,91
2017-07-28T05:52:08.494Z,91
2017-07-28T05:53:10.859Z,90
2017-07-28T05:54:12.882Z,90
2017-07-28T05:55:15.278Z,90
2017-07-28T05:56:17.644Z,90
2017-07-28T05:57:20.022Z,91
2017-07-28T05:58:22.396Z,91
2017-07-28T05:59:24.520Z,90
2017-07-28T06:00:26.893Z,90
2017-07-28T06:01:29.617Z,89
2017-07-28T06:02:32.090Z,89
2017-07-28T06:03:34.373Z,89
2017-07-28T06:04:36.808Z,89
2017-07-28T06:05:38.838Z,89
2017-07-28T06:06:40.868Z,89
2017-07-28T06:07:42.923Z,89
2017-07-28T06:08:45.186Z,89
2017-07-28T06:09:47.213Z,88
2017-07-28T06:10:50.246Z,88
2017-07-28T06:11:52.280Z,87
2017-07-28T06:12:54.306Z,87
2017-07-28T06:13:56.334Z,87
2017-07-28T06:14:58.356Z,87
2017-07-28T06:16:00.384Z,87
2017-07-28T06:17:02.766Z,88
2017-07-28T06:18:04.794Z,88
2017-07-28T06:19:06.826Z,87
2017-07-28T06:20:09.196Z,87
2017-07-28T06:21:11.227Z,86
2017-07-28T06:22:13.251Z,86
2017-07-28T06:23:15.632Z,86
2017-07-28T06:24:17.668Z,86
2017-07-28T06:25:19.697Z,86
2017-07-28T06:26:21.719Z,86
2017-07-28T06:27:24.086Z,86
2017-07-28T06:28:27.482Z,85
2017-07-28T06:29:29.502Z,86
2017-07-28T06:30:32.230Z,87
2017-07-28T06:31:34.257Z,87
2017-07-28T06:32:36.620Z,86
2017-07-28T06:33:38.653Z,86
2017-07-28T06:34:40.686Z,86
2017-07-28T06:35:42.723Z,86
2017-07-28T06:36:44.751Z,85
2017-07-28T06:37:47.119Z,86
2017-07-28T06:38:49.486Z,86
2017-07-28T06:39:51.847Z,86
2017-07-28T06:40:53.888Z,86
2017-07-28T06:41:56.596Z,85
2017-07-28T06:42:58.615Z,85
2017-07-28T06:44:00.705Z,85
2017-07-28T06:45:03.410Z,85
2017-07-28T06:46:05.453Z,85
2017-07-28T06:47:07.484Z,84
2017-07-28T06:48:09.514Z,84
2017-07-28T06:49:11.541Z,84
2017-07-28T06:50:13.565Z,83
2017-07-28T06:51:15.927Z,83
2017-07-28T06:52:17.960Z,83
2017-07-28T06:53:19.981Z,82
2017-07-28T06:54:22.342Z,82
2017-07-28T06:55:24.376Z,82
2017-07-28T06:56:26.741Z,82
2017-07-28T06:57:28.769Z,83
2017-07-28T06:58:31.134Z,81
2017-07-28T06:59:33.167Z,81
2017-07-28T07:00:35.203Z,79
2017-07-28T07:01:37.228Z,81
2017-07-28T07:02:39.934Z,80
2017-07-28T07:03:41.957Z,81
2017-07-28T07:04:44.681Z,81
2017-07-28T07:05:47.049Z,79
2017-07-28T07:06:49.415Z,77
2017-07-28T07:07:51.448Z,78
2017-07-28T07:08:53.473Z,78
2017-07-28T07:09:55.501Z,78
2017-07-28T07:10:57.546Z,77
2017-07-28T07:11:59.570Z,77
2017-07-28T07:13:01.594Z,76
2017-07-28T07:14:04.304Z,75
2017-07-28T07:15:06.680Z,75
2017-07-28T07:16:09.136Z,75
2017-07-28T07:17:11.167Z,76
2017-07-28T07:18:13.183Z,75
2017-07-28T07:19:15.219Z,77
2017-07-28T07:20:17.579Z,76
2017-07-28T07:21:19.609Z,77
2017-07-28T07:22:21.645Z,77
2017-07-28T07:23:24.025Z,76
2017-07-28T07:24:26.059Z,76
2017-07-28T07:25:28.078Z,74
2017-07-28T07:26:30.446Z,74
2017-07-28T07:27:32.879Z,76
2017-07-28T07:28:35.256Z,74
2017-07-28T07:29:37.279Z,75
2017-07-28T07:30:39.305Z,76
2017-07-28T07:31:41.327Z,76
2017-07-28T07:32:43.695Z,75
2017-07-28T07:33:46.070Z,76
2017-07-28T07:34:48.106Z,75
2017-07-28T07:35:50.151Z,73
2017-07-28T07:36:52.628Z,74
2017-07-28T07:37:55.337Z,73
2017-07-28T07:38:57.702Z,73
2017-07-28T07:39:59.734Z,72
2017-07-28T07:41:01.767Z,75
2017-07-28T07:42:03.808Z,72
2017-07-28T07:43:05.840Z,74
2017-07-28T07:44:07.856Z,73
2017-07-28T07:45:10.249Z,73
2017-07-28T07:46:12.283Z,73
2017-07-28T07:47:14.314Z,71
2017-07-28T07:48:16.337Z,70
2017-07-28T07:49:18.400Z,70
2017-07-28T07:50:20.784Z,69
2017-07-28T07:51:23.164Z,69
2017-07-28T07:52:25.523Z,70
2017-07-28T07:53:27.563Z,69
2017-07-28T07:54:29.933Z,69
2017-07-28T07:55:31.964Z,69
2017-07-28T07:56:34.349Z,68
2017-07-28T07:57:36.377Z,69
2017-07-28T07:58:38.752Z,70
2017-07-28T07:59:40.789Z,68
2017-07-28T08:00:43.159Z,68
2017-07-28T08:01:45.188Z,69
2017-07-28T08:02:47.227Z,69
2017-07-28T08:03:49.265Z,68
2017-07-28T08:04:51.295Z,71
2017-07-28T08:05:53.681Z,70
2017-07-28T08:06:56.044Z,69
2017-07-28T08:07:58.741Z,70
2017-07-28T08:09:00.770Z,70
2017-07-28T08:10:03.823Z,70
2017-07-28T08:11:05.856Z,69
2017-07-28T08:12:08.234Z,70
2017-07-28T08:13:10.255Z,73
2017-07-28T08:14:12.304Z,70
2017-07-28T08:15:14.679Z,69
2017-07-28T08:16:16.710Z,69
2017-07-28T08:17:19.091Z,69
2017-07-28T08:18:21.454Z,70
2017-07-28T08:19:23.473Z,68
2017-07-28T08:20:25.510Z,69
2017-07-28T08:21:27.882Z,69
2017-07-28T08:22:30.255Z,67
2017-07-28T08:23:32.284Z,68
2017-07-28T08:24:34.653Z,68
2017-07-28T08:25:36.686Z,67
2017-07-28T08:26:39.050Z,69
2017-07-28T08:27:41.420Z,71
2017-07-28T08:28:43.458Z,69
2017-07-28T08:29:45.493Z,70
2017-07-28T08:30:47.532Z,69
2017-07-28T08:31:49.556Z,68
2017-07-28T08:32:51.932Z,67
2017-07-28T08:33:54.307Z,67
2017-07-28T08:34:56.338Z,67
2017-07-28T08:35:58.373Z,65
2017-07-28T08:37:00.743Z,66
2017-07-28T08:38:02.779Z,65
2017-07-28T08:39:04.819Z,67
2017-07-28T08:40:07.179Z,67
2017-07-28T08:41:09.219Z,68
2017-07-28T08:42:11.246Z,69
2017-07-28T08:43:13.959Z,68
2017-07-28T08:44:15.993Z,68
2017-07-28T08:45:18.028Z,69
2017-07-28T08:46:20.076Z,68
2017-07-28T08:47:22.109Z,67
2017-07-28T08:48:24.468Z,66
2017-07-28T08:49:26.514Z,68
2017-07-28T08:50:28.534Z,69
2017-07-28T08:51:30.907Z,68
2017-07-28T08:52:33.279Z,67
2017-07-28T08:53:35.315Z,68
2017-07-28T08:54:37.345Z,69
2017-07-28T08:55:39.375Z,70
2017-07-28T08:56:41.739Z,71
2017-07-28T08:57:43.804Z,71
2017-07-28T08:58:45.828Z,69
2017-07-28T08:59:47.865Z,69
2017-07-28T09:00:49.894Z,66
2017-07-28T09:01:51.933Z,69
2017-07-28T09:02:53.963Z,67
2017-07-28T09:03:56.342Z,64
2017-07-28T09:04:58.437Z,63
2017-07-28T09:06:00.811Z,64
2017-07-28T09:07:02.839Z,64
2017-07-28T09:08:04.882Z,61
2017-07-28T09:09:06.920Z,64
2017-07-28T09:10:09.298Z,64
2017-07-28T09:11:11.352Z,63
2017-07-28T09:12:13.387Z,64
2017-07-28T09:13:15.435Z,62
2017-07-28T09:14:17.821Z,59
2017-07-28T09:15:19.856Z,59
2017-07-28T09:16:22.922Z,60
2017-07-28T09:17:25.302Z,57
2017-07-28T09:18:27.340Z,57
2017-07-28T09:19:29.369Z,57
2017-07-28T09:20:31.749Z,58
2017-07-28T09:21:34.140Z,55
2017-07-28T09:22:36.843Z,55
2017-07-28T09:23:39.230Z,57
2017-07-28T09:24:41.603Z,56
2017-07-28T09:25:43.665Z,55
2017-07-28T09:26:46.377Z,55
2017-07-28T09:27:49.425Z,55
2017-07-28T09:28:51.463Z,54
2017-07-28T09:29:53.502Z,54
2017-07-28T09:30:56.200Z,58
2017-07-28T09:31:58.575Z,56
2017-07-28T09:33:00.613Z,57
2017-07-28T09:34:02.996Z,55
2017-07-28T09:35:05.725Z,58
2017-07-28T09:36:08.108Z,56
2017-07-28T09:37:10.162Z,56
2017-07-28T09:38:12.198Z,54
2017-07-28T09:39:14.574Z,53
2017-07-28T09:40:16.985Z,53
2017-07-28T09:41:19.023Z,53
2017-07-28T09:42:21.418Z,55
2017-07-28T09:43:23.459Z,55
2017-07-28T09:44:25.485Z,55
2017-07-28T09:45:27.524Z,54
2017-07-28T09:46:29.866Z,55
2017-07-28T09:47:31.901Z,54
2017-07-28T09:48:33.939Z,52
2017-07-28T09:49:35.994Z,53
2017-07-28T09:50:38.052Z,55
2017-07-28T09:51:40.086Z,55
2017-07-28T09:52:42.466Z,52
2017-07-28T09:53:45.191Z,54
2017-07-28T09:54:47.226Z,53
2017-07-28T09:55:49.259Z,52
2017-07-28T09:56:51.648Z,53
2017-07-28T09:57:54.039Z,52
2017-07-28T09:58:56.083Z,53
2017-07-28T09:59:58.457Z,52
2017-07-28T10:01:00.498Z,52
2017-07-28T10:02:02.888Z,50
2017-07-28T10:03:04.922Z,51
2017-07-28T10:04:06.961Z,53
2017-07-28T10:05:09.346Z,53
2017-07-28T10:06:11.369Z,53
2017-07-28T10:07:13.413Z,54
2017-07-28T10:08:15.458Z,52
2017-07-28T10:09:17.496Z,55
2017-07-28T10:10:19.534Z,52
2017-07-28T10:11:21.913Z,52
2017-07-28T10:12:24.296Z,50
2017-07-28T10:13:26.681Z,51
2017-07-28T10:14:29.056Z,51
2017-07-28T10:15:31.102Z,51
2017-07-28T10:16:33.138Z,53
2017-07-28T10:17:35.185Z,52
2017-07-28T10:18:37.575Z,50
2017-07-28T10:19:39.620Z,51
2017-07-28T10:20:41.662Z,50
2017-07-28T10:21:43.692Z,52
2017-07-28T10:22:45.734Z,51
2017-07-28T10:23:47.796Z,51
2017-07-28T10:24:49.837Z,50
2017-07-28T10:25:51.881Z,53
2017-07-28T10:26:53.924Z,51
2017-07-28T10:27:56.309Z,51
2017-07-28T10:28:58.356Z,52
2017-07-28T10:30:00.735Z,51
2017-07-28T10:31:03.121Z,51
2017-07-28T10:32:05.157Z,53
2017-07-28T10:33:07.196Z,51
2017-07-28T10:34:09.233Z,52
2017-07-28T10:35:11.607Z,51
2017-07-28T10:36:13.639Z,51
2017-07-28T10:37:15.690Z,52
2017-07-28T10:38:17.722Z,53
2017-07-28T10:39:20.107Z,55
2017-07-28T10:40:22.150Z,54
2017-07-28T10:41:24.534Z,53
2017-07-28T10:42:26.576Z,54
2017-07-28T10:43:28.622Z,52
2017-07-28T10:44:30.713Z,53
2017-07-28T10:45:32.741Z,54
2017-07-28T10:46:35.444Z,53
2017-07-28T10:47:37.477Z,56
2017-07-28T10:48:39.508Z,54
2017-07-28T10:49:41.550Z,57
2017-07-28T10:50:44.264Z,59
2017-07-28T10:51:46.630Z,59
2017-07-28T10:52:48.684Z,60
2017-07-28T10:53:50.710Z,61
2017-07-28T10:54:52.756Z,57
2017-07-28T10:55:54.799Z,61
2017-07-28T10:56:56.844Z,61
2017-07-28T10:57:59.220Z,58
2017-07-28T10:59:01.258Z,60
2017-07-28T11:00:03.642Z,57
2017-07-28T11:01:06.026Z,58
2017-07-28T11:02:08.741Z,58
2017-07-28T11:03:10.770Z,57
2017-07-28T11:04:12.805Z,55
2017-07-28T11:05:14.846Z,57
2017-07-28T11:06:16.883Z,58
2017-07-28T11:07:18.932Z,55
2017-07-28T11:08:20.965Z,56
2017-07-28T11:09:23.001Z,59
2017-07-28T11:10:25.038Z,57
2017-07-28T11:11:27.066Z,54
2017-07-28T11:12:29.455Z,56
2017-07-28T11:13:31.518Z,56
2017-07-28T11:14:33.551Z,56
2017-07-28T11:15:35.596Z,56
2017-07-28T11:16:37.623Z,56
2017-07-28T11:17:40.013Z,57
2017-07-28T11:18:42.042Z,58
2017-07-28T11:19:44.758Z,57
2017-07-28T11:20:47.130Z,59
2017-07-28T11:21:49.167Z,59
2017-07-28T11:22:51.537Z,58
2017-07-28T11:23:53.573Z,57
2017-07-28T11:24:55.950Z,58
2017-07-28T11:25:57.983Z,57
2017-07-28T11:27:00.701Z,57
2017-07-28T11:28:03.081Z,58
2017-07-28T11:29:05.458Z,59
2017-07-28T11:30:07.501Z,59
2017-07-28T11:31:09.538Z,58
2017-07-28T11:32:11.912Z,59
2017-07-28T11:33:13.952Z,60
2017-07-28T11:34:15.989Z,57
2017-07-28T11:35:18.417Z,59
2017-07-28T11:36:20.454Z,60
2017-07-28T11:37:23.201Z,61
2017-07-28T11:38:25.232Z,62
2017-07-28T11:39:27.259Z,63
2017-07-28T11:40:29.290Z,64
2017-07-28T11:41:31.659Z,64
2017-07-28T11:42:33.700Z,65
2017-07-28T11:43:35.725Z,66
2017-07-28T11:44:38.119Z,67
2017-07-28T11:45:40.158Z,65
2017-07-28T11:46:42.527Z,65
2017-07-28T11:47:44.557Z,65
2017-07-28T11:48:46.588Z,66
2017-07-28T11:49:48.976Z,68
2017-07-28T11:50:51.029Z,67
2017-07-28T11:51:53.062Z,67
2017-07-28T11:52:55.110Z,64
2017-07-28T11:53:57.140Z,63
2017-07-28T11:54:59.166Z,63
2017-07-28T11:56:01.553Z,61
2017-07-28T11:57:04.263Z,62
2017-07-28T11:58:06.305Z,64
2017-07-28T11:59:08.340Z,60
2017-07-28T12:00:10.718Z,61
2017-07-28T12:01:12.751Z,64
2017-07-28T12:02:14.804Z,59
2017-07-28T12:03:17.179Z,58
2017-07-28T12:04:19.208Z,55
2017-07-28T12:05:21.589Z,56
2017-07-28T12:06:23.961Z,56
2017-07-28T12:07:26.320Z,54
2017-07-28T12:08:28.384Z,51
2017-07-28T12:09:30.538Z,51
2017-07-28T12:10:32.933Z,50
2017-07-28T12:11:35.305Z,56
2017-07-28T12:12:37.687Z,52
2017-07-28T12:13:40.137Z,52
2017-07-28T12:14:42.835Z,51
2017-07-28T12:15:45.556Z,50
2017-07-28T12:16:47.607Z,53
2017-07-28T12:17:49.989Z,50
2017-07-28T12:18:52.021Z,49
2017-07-28T12:19:54.076Z,52
2017-07-28T12:20:56.453Z,53
2017-07-28T12:21:58.835Z,51
2017-07-28T12:23:00.873Z,48
2017-07-28T12:24:02.909Z,48
2017-07-28T12:25:05.662Z,49
2017-07-28T12:26:07.706Z,48
2017-07-28T12:27:10.078Z,48
2017-07-28T12:28:12.465Z,50
2017-07-28T12:29:14.518Z,50
2017-07-28T12:30:17.580Z,52
2017-07-28T12:31:19.623Z,52
2017-07-28T12:32:21.661Z,52
2017-07-28T12:33:24.059Z,52
2017-07-28T12:34:26.104Z,52
2017-07-28T12:35:28.131Z,52
2017-07-28T12:36:30.173Z,53
2017-07-28T12:37:32.211Z,56
2017-07-28T12:38:34.592Z,55
2017-07-28T12:39:36.647Z,56
2017-07-28T12:40:39.052Z,57
2017-07-28T12:41:41.094Z,58
2017-07-28T12:42:43.123Z,57
2017-07-28T12:43:45.489Z,58
2017-07-28T12:44:47.873Z,58
2017-07-28T12:45:49.921Z,61
2017-07-28T12:46:52.646Z,63
2017-07-28T12:47:54.700Z,68
2017-07-28T12:48:56.728Z,70
2017-07-28T12:49:59.101Z,76
2017-07-28T12:51:02.162Z,76
2017-07-28T12:52:04.199Z,78
2017-07-28T12:53:06.235Z,79
2017-07-28T12:54:08.269Z,80
2017-07-28T12:55:10.309Z,81
2017-07-28T12:56:12.351Z,81
2017-07-28T12:57:14.379Z,82
2017-07-28T12:58:16.414Z,83
2017-07-28T12:59:18.463Z,84
2017-07-28T13:00:20.865Z,83
2017-07-28T13:01:23.562Z,83
2017-07-28T13:02:25.944Z,83
2017-07-28T13:03:27.979Z,81
2017-07-28T13:04:30.015Z,82
2017-07-28T13:05:32.389Z,83
2017-07-28T13:06:34.770Z,82
2017-07-28T13:07:37.151Z,82
2017-07-28T13:08:39.514Z,82
2017-07-28T13:09:41.550Z,82
2017-07-28T13:10:43.586Z,84
2017-07-28T13:11:46.300Z,85
2017-07-28T13:12:48.329Z,86
2017-07-28T13:13:50.694Z,86
2017-07-28T13:14:53.070Z,87
2017-07-28T13:15:55.099Z,88
2017-07-28T13:16:57.136Z,88
2017-07-28T13:17:59.518Z,87
2017-07-28T13:19:02.227Z,86
2017-07-28T13:20:04.618Z,85
2017-07-28T13:21:06.982Z,84
2017-07-28T13:22:09.027Z,85
2017-07-28T13:23:11.058Z,86
2017-07-28T13:24:13.770Z,85
2017-07-28T13:25:15.802Z,85
2017-07-28T13:26:17.833Z,84
2017-07-28T13:27:19.868Z,84
2017-07-28T13:28:21.887Z,84
2017-07-28T13:29:24.255Z,84
2017-07-28T13:30:26.306Z,84
2017-07-28T13:31:28.329Z,82
2017-07-28T13:32:30.361Z,84
2017-07-28T13:33:32.717Z,83
2017-07-28T13:34:34.760Z,84
2017-07-28T13:35:37.163Z,84
2017-07-28T13:36:39.212Z,84
2017-07-28T13:37:41.241Z,83
2017-07-28T13:38:43.273Z,82
2017-07-28T13:39:45.638Z,82
2017-07-28T13:40:47.674Z,83
2017-07-28T13:41:50.030Z,82
2017-07-28T13:42:52.061Z,81
2017-07-28T13:43:54.090Z,81
2017-07-28T13:44:56.808Z,80
2017-07-28T13:45:58.839Z,80
2017-07-28T13:47:00.875Z,80
2017-07-28T13:48:03.242Z,79
2017-07-28T13:49:05.271Z,81
2017-07-28T13:50:07.642Z,81
2017-07-28T13:51:10.014Z,82
2017-07-28T13:52:12.052Z,82
2017-07-28T13:53:14.827Z,83
2017-07-28T13:54:16.869Z,83
2017-07-28T13:55:18.961Z,83
2017-07-28T13:56:20.996Z,83
2017-07-28T13:57:23.035Z,81
2017-07-28T13:58:25.746Z,82
2017-07-28T13:59:28.123Z,82
2017-07-28T14:00:30.153Z,81
2017-07-28T14:01:32.861Z,82
2017-07-28T14:02:34.898Z,81
2017-07-28T14:03:36.927Z,82
2017-07-28T14:04:38.963Z,82
2017-07-28T14:05:41.006Z,81
2017-07-28T14:06:43.037Z,81
2017-07-28T14:07:45.757Z,81
2017-07-28T14:08:47.792Z,79
2017-07-28T14:09:50.152Z,79
2017-07-28T14:10:52.539Z,80
2017-07-28T14:11:54.561Z,80
2017-07-28T14:12:56.586Z,78
2017-07-28T14:13:58.638Z,78
2017-07-28T14:15:00.672Z,80
2017-07-28T14:16:03.046Z,78
2017-07-28T14:17:05.410Z,78
2017-07-28T14:18:07.789Z,77
2017-07-28T14:19:09.817Z,78
2017-07-28T14:20:12.189Z,76
2017-07-28T14:21:14.214Z,79
2017-07-28T14:22:16.250Z,75
2017-07-28T14:23:18.278Z,72
2017-07-28T14:24:20.651Z,71
2017-07-28T14:25:22.685Z,71
2017-07-28T14:26:24.716Z,72
2017-07-28T14:27:26.753Z,74
2017-07-28T14:28:28.789Z,71
2017-07-28T14:29:30.820Z,73
2017-07-28T14:30:33.208Z,70
2017-07-28T14:31:35.244Z,70
2017-07-28T14:32:37.275Z,66
2017-07-28T14:33:39.314Z,65
2017-07-28T14:34:41.349Z,67
2017-07-28T14:35:43.393Z,67
2017-07-28T14:36:45.754Z,65
2017-07-28T14:37:47.790Z,65
2017-07-28T14:38:50.185Z,67
2017-07-28T14:39:52.889Z,69
2017-07-28T14:40:55.267Z,71
2017-07-28T14:41:57.319Z,72
2017-07-28T14:42:59.715Z,70
2017-07-28T14:44:01.750Z,70
2017-07-28T14:45:04.133Z,72
2017-07-28T14:46:06.190Z,73
2017-07-28T14:47:08.221Z,68